Glenwood City, WI (54013)

00:22 CDT le 01 novembre 2014 (GMT -0500)
KWIEMERA2 | Change Station
CLOSE
Current Station
Stations météorologiques personnelles
Location: Emerald, WI
Altitude: 1197 ft
Stations météo à proximité

Alt. 1197 ft 45.10 °N, 92.26 °W | Updated 2 seconds ago

Ciel dégagé
Ciel dégagé
24.7 ° F
Paraît 25 ° F
N
1.0
Vent Variable Vent de Est
Gusts 3.0 mph

Aujourd'hui
Haut(e) -- | Bas -- ° F
--% Risque de précip.
Hier
Haut(e) -- | Bas -- ° F
Precip. -- pouce
7:47 AM 5:56 PM
Lune gibbeuse croissante, 63% visible
Pression 30.48 pouce
Visibilité 10.0 Miles terrestres
Nuages Ciel dégagé
Refroidissement éolien 25 ° F
Point de rosée 17 ° F
Humidité 71%
Précipitations 0.00 pouce
Profondeur de la couche neigeuse Non disponible.
UV 0 sur 12
Pollen .10 sur 12
Qualité de l'air Non disponible.
Flu Activity Non disponible.
METAR KRNH 010515Z AUTO 00000KT 10SM CLR M06/M06 A3048 RMK AO2 T10561064

More Conditions Fewer Conditions

Pression 30.48 pouce
Visibilité 10.0 Miles terrestres
Nuages Ciel dégagé
Refroidissement éolien 25 ° F
Point de rosée 17 ° F
Humidité 71%
Précipitations 0.00 pouce
Profondeur de la couche neigeuse Non disponible.
UV 0 sur 12
Pollen .10 sur 12
Qualité de l'air Non disponible.
Flu Activity Non disponible.
METAR KRNH 010515Z AUTO 00000KT 10SM CLR M06/M06 A3048 RMK AO2 T10561064

More Conditions Fewer Conditions

10-Day Weather Forecast

Almanac

Astronomie

Nov. 01, 2014 Lever Coucher
Temps réel
Crépuscule civil
Crépuscule nautique
Crépuscule astronomique
Lune
Durée de lumière visible
Longueur du jour
Tomorrow will be .
, % of the Moon is Illuminated

Extrêmes aujourd'hui

State Highs State Lows

Community

WunderPhotos

Upload Photos

1,766,858 Photos téléchargées !

WunderBlogs® & News

Nearby

Qualité de l'air

  Qualité de l'air Indice de la qualité de l'air Polluant
Not available.

Épaisseur de neige

Station Depth Altitude

Activité sismique

Ville Distance Mag. Time & Date
Minimum magnitude displayed is 2.5.

Températures des eaux côtières

Lieu Température

Stations météo à proximité